Time;durP1;ratioP1;P1;durP2;ratioP2;P2;SDS_P1;SDS_P2;PMS_P1;PMS_P2;Temp;Humidity;BMP_temperature;BMP_pressure;BME280_temperature;BME280_humidity;BME280_pressure;Samples;Min_cycle;Max_cycle;Signal;HPM_P1;HPM_P2
2022/05/20 00:01:29;;;;;;;6.15;4.60;;;;;;;24.68;54.62;99854.25;4108417;28;20852;-69
2022/05/20 00:03:31;;;;;;;8.30;4.90;;;;;;;24.64;54.81;99866.69;4103390;28;20231;-69
2022/05/20 00:05:33;;;;;;;7.97;4.88;;;;;;;24.38;55.37;99860.06;4102846;28;20259;-69
2022/05/20 00:07:35;;;;;;;7.30;5.45;;;;;;;24.45;55.51;99857.16;4101875;28;20230;-69
2022/05/20 00:09:37;;;;;;;9.55;5.60;;;;;;;23.99;56.52;99859.94;4100133;28;20667;-69
2022/05/20 00:11:39;;;;;;;8.52;5.55;;;;;;;24.34;55.55;99847.22;4104440;28;20231;-70
2022/05/20 00:13:41;;;;;;;6.07;4.38;;;;;;;24.10;56.26;99855.50;4111133;28;20239;-69
2022/05/20 00:15:42;;;;;;;8.52;4.13;;;;;;;24.34;55.76;99849.94;4110434;28;20242;-69
2022/05/20 00:17:44;;;;;;;7.25;4.13;;;;;;;23.79;56.93;99857.69;4104679;28;20270;-69
2022/05/20 00:19:46;;;;;;;5.30;4.15;;;;;;;23.81;57.02;99846.59;4102451;28;20779;-69
2022/05/20 00:21:48;;;;;;;6.55;4.55;;;;;;;23.88;57.36;99836.41;4090761;28;20244;-69
2022/05/20 00:23:50;;;;;;;6.82;4.20;;;;;;;24.42;55.80;99847.59;4105346;28;20238;-69
2022/05/20 00:25:53;;;;;;;8.77;4.50;;;;;;;24.19;56.34;99864.09;4107599;28;20866;-69
2022/05/20 00:27:55;;;;;;;5.85;4.30;;;;;;;24.28;56.04;99852.56;4106644;28;20701;-69
2022/05/20 00:29:58;;;;;;;8.15;4.75;;;;;;;24.75;55.32;99858.66;4108846;28;20238;-70
2022/05/20 00:31:59;;;;;;;10.07;5.53;;;;;;;24.97;54.71;99854.13;4108651;28;20235;-69
2022/05/20 00:34:01;;;;;;;11.52;6.50;;;;;;;24.80;55.24;99859.59;4100764;28;20234;-70
2022/05/20 00:36:04;;;;;;;12.45;6.47;;;;;;;24.60;55.81;99859.28;4099248;28;20231;-69
2022/05/20 00:38:07;;;;;;;14.00;6.93;;;;;;;25.09;54.64;99861.31;4092236;28;20231;-69
2022/05/20 00:40:11;;;;;;;8.35;6.10;;;;;;;24.05;57.29;99858.13;4098212;28;20282;-69
2022/05/20 00:42:15;;;;;;;8.85;6.18;;;;;;;24.26;57.04;99853.88;4122515;28;20312;-69
2022/05/20 00:44:17;;;;;;;10.68;6.57;;;;;;;23.82;57.87;99857.19;4094594;28;21133;-68
2022/05/20 00:46:22;;;;;;;11.10;6.03;;;;;;;24.45;56.42;99851.75;4092024;28;20285;-70
2022/05/20 00:48:24;;;;;;;11.18;6.65;;;;;;;24.82;55.62;99854.75;4094910;28;20247;-69
2022/05/20 00:50:26;;;;;;;12.18;6.55;;;;;;;24.28;56.92;99862.63;4092762;28;20693;-69
2022/05/20 00:52:33;;;;;;;10.32;6.60;;;;;;;24.70;56.14;99856.72;4107370;28;20720;-69
2022/05/20 00:54:40;;;;;;;13.13;7.50;;;;;;;25.30;54.55;99862.41;4098727;28;20325;-69
2022/05/20 00:56:49;;;;;;;11.77;7.07;;;;;;;25.45;54.40;99869.94;4108955;28;20235;-70
2022/05/20 00:58:53;;;;;;;12.32;7.22;;;;;;;24.75;55.77;99872.25;4105254;28;20282;-70
2022/05/20 01:00:56;;;;;;;9.98;7.50;;;;;;;25.10;54.90;99871.13;4107816;28;20230;-69
2022/05/20 01:03:03;;;;;;;9.75;7.85;;;;;;;24.55;55.86;99875.50;4099227;28;20231;-70
2022/05/20 01:05:21;;;;;;;10.77;6.97;;;;;;;25.09;54.91;99869.47;4091251;28;20246;-68
2022/05/20 01:07:24;;;;;;;14.00;7.90;;;;;;;24.94;54.98;99879.09;4125573;28;20230;-69
2022/05/20 01:09:26;;;;;;;8.95;7.22;;;;;;;24.85;55.56;99867.84;4097734;28;20275;-69
2022/05/20 01:11:27;;;;;;;11.15;8.43;;;;;;;24.15;57.20;99858.28;4105728;28;20298;-69
2022/05/20 01:13:31;;;;;;;11.40;9.10;;;;;;;24.66;56.10;99863.72;4088765;28;20231;-70
2022/05/20 01:15:33;;;;;;;12.55;8.85;;;;;;;24.73;55.91;99853.47;4096237;28;20301;-70
2022/05/20 01:17:36;;;;;;;11.52;8.40;;;;;;;24.85;55.46;99856.13;4103745;28;20289;-70
2022/05/20 01:19:46;;;;;;;11.63;7.85;;;;;;;24.78;55.57;99864.44;4091244;28;20642;-69
2022/05/20 01:21:49;;;;;;;11.75;10.05;;;;;;;24.47;56.17;99868.59;4087576;28;20236;-69
2022/05/20 01:23:51;;;;;;;12.18;9.90;;;;;;;24.42;56.47;99869.34;4101341;28;20243;-69
2022/05/20 01:25:56;;;;;;;11.25;8.93;;;;;;;24.43;56.64;99851.97;4097426;28;20226;-69
2022/05/20 01:27:58;;;;;;;15.68;7.93;;;;;;;24.15;57.24;99858.28;4090708;28;20712;-69
2022/05/20 01:30:00;;;;;;;14.05;8.20;;;;;;;23.76;58.04;99861.72;4105689;28;20873;-69
2022/05/20 01:32:02;;;;;;;14.82;7.00;;;;;;;23.78;58.20;99864.19;4105350;28;20719;-70
2022/05/20 01:34:03;;;;;;;9.10;6.90;;;;;;;23.53;58.84;99867.22;4111920;28;20230;-69
2022/05/20 01:36:09;;;;;;;8.60;6.20;;;;;;;23.91;58.08;99855.72;4098448;28;20739;-69
2022/05/20 01:38:11;;;;;;;8.65;6.38;;;;;;;23.88;57.90;99853.50;4107637;28;20242;-68
2022/05/20 01:40:13;;;;;;;9.02;6.38;;;;;;;23.64;58.33;99852.00;4106342;28;20317;-69
2022/05/20 01:42:24;;;;;;;9.80;6.30;;;;;;;24.13;57.30;99855.00;4109490;28;20281;-70
2022/05/20 01:44:37;;;;;;;10.43;6.35;;;;;;;24.08;57.32;99858.47;4108555;28;20289;-69
2022/05/20 01:46:49;;;;;;;12.68;6.47;;;;;;;23.88;57.89;99853.50;4109050;28;20378;-70
2022/05/20 01:49:02;;;;;;;8.38;6.15;;;;;;;23.43;58.37;99870.56;4107945;28;20243;-69
2022/05/20 01:51:09;;;;;;;8.93;6.18;;;;;;;23.35;59.34;99855.50;4110214;28;20230;-69
2022/05/20 01:53:27;;;;;;;8.20;5.95;;;;;;;23.42;58.99;99862.66;4106041;28;20762;-68
2022/05/20 01:55:46;;;;;;;7.72;6.10;;;;;;;24.07;57.16;99851.38;4110635;28;20230;-69
2022/05/20 01:58:22;;;;;;;10.32;5.72;;;;;;;24.17;57.22;99848.03;4109345;28;20298;-69
2022/05/20 02:00:27;;;;;;;9.93;6.18;;;;;;;24.62;55.65;99852.53;4109872;28;20246;-69
2022/05/20 02:02:40;;;;;;;8.10;5.60;;;;;;;24.93;54.68;99866.56;4112835;28;20234;-69
2022/05/20 02:04:56;;;;;;;7.68;5.95;;;;;;;24.68;55.28;99867.00;4110402;28;20618;-69
2022/05/20 02:07:04;;;;;;;7.93;6.18;;;;;;;24.78;54.76;99871.78;4105588;28;20242;-69
2022/05/20 02:09:17;;;;;;;9.23;6.00;;;;;;;24.95;54.67;99875.31;4105874;28;20238;-69
2022/05/20 02:11:36;;;;;;;8.70;6.30;;;;;;;24.99;54.37;99871.00;4103007;28;20230;-70
2022/05/20 02:13:45;;;;;;;7.80;5.97;;;;;;;24.90;53.89;99872.50;4108697;28;20230;-70
2022/05/20 02:15:52;;;;;;;7.40;5.80;;;;;;;24.19;55.77;99875.75;4098931;28;20274;-69
2022/05/20 02:18:00;;;;;;;9.23;5.82;;;;;;;24.21;56.12;99860.06;4093942;28;20234;-69
2022/05/20 02:20:19;;;;;;;12.07;7.10;;;;;;;24.46;55.23;99875.09;4096429;28;20646;-70
2022/05/20 02:22:26;;;;;;;10.93;8.18;;;;;;;24.38;55.79;99878.25;4095074;28;20227;-69
2022/05/20 02:24:33;;;;;;;10.70;7.80;;;;;;;23.71;57.35;99877.91;4121371;28;20230;-69
2022/05/20 02:26:41;;;;;;;14.10;7.68;;;;;;;24.44;55.81;99867.19;4108496;28;20293;-70
2022/05/20 02:28:48;;;;;;;17.15;8.48;;;;;;;24.70;54.36;99875.75;4108815;28;20244;-70
2022/05/20 02:30:51;;;;;;;13.35;8.05;;;;;;;24.31;55.25;99883.84;4105469;28;21639;-70
2022/05/20 02:33:04;;;;;;;10.68;7.47;;;;;;;24.78;54.59;99883.50;4107324;28;20231;-69
2022/05/20 02:35:06;;;;;;;12.15;6.88;;;;;;;24.43;54.92;99890.03;4098047;28;20305;-69
2022/05/20 02:37:24;;;;;;;9.65;6.70;;;;;;;24.59;54.89;99884.81;4106898;28;20624;-69
2022/05/20 02:39:26;;;;;;;8.95;7.15;;;;;;;24.72;54.46;99881.75;4105938;28;20321;-70
2022/05/20 02:41:29;;;;;;;8.43;6.72;;;;;;;24.69;54.07;99888.50;4100684;28;20710;-69
2022/05/20 02:43:31;;;;;;;10.25;6.25;;;;;;;23.95;55.99;99891.38;4105653;28;20227;-69
2022/05/20 02:45:33;;;;;;;9.63;6.40;;;;;;;24.11;56.19;99881.59;4109485;28;20652;-69
2022/05/20 02:47:36;;;;;;;9.00;5.75;;;;;;;23.39;57.55;99893.81;4106847;28;20718;-69
2022/05/20 02:49:38;;;;;;;9.18;5.65;;;;;;;24.02;55.84;99883.06;4112011;28;20242;-69
2022/05/20 02:51:39;;;;;;;9.10;5.00;;;;;;;24.39;55.41;99874.47;4107249;28;20234;-69
2022/05/20 02:53:41;;;;;;;10.32;5.10;;;;;;;24.02;56.55;99875.72;4102074;28;20270;-69
2022/05/20 02:55:43;;;;;;;8.75;5.55;;;;;;;23.98;56.31;99881.91;4099791;28;20239;-69
2022/05/20 02:57:45;;;;;;;7.18;5.35;;;;;;;24.19;55.87;99888.53;4101400;28;20238;-69
2022/05/20 03:04:27;;;;;;;12.27;8.23;;;;;;;24.79;54.47;99892.50;4089835;28;20234;-69
2022/05/20 03:06:29;;;;;;;11.65;7.78;;;;;;;24.55;54.55;99902.69;4090273;28;20235;-70
2022/05/20 03:08:31;;;;;;;10.65;7.88;;;;;;;24.00;55.97;99899.59;4089322;28;20662;-69
2022/05/20 03:10:32;;;;;;;13.32;10.15;;;;;;;24.30;55.42;99898.50;4093597;28;20235;-69
2022/05/20 03:12:35;;;;;;;9.05;7.95;;;;;;;24.38;54.93;99894.53;4085843;28;20704;-69
2022/05/20 03:14:38;;;;;;;8.07;6.65;;;;;;;24.08;55.36;99896.47;4107100;28;20627;-69
2022/05/20 03:16:40;;;;;;;9.32;7.35;;;;;;;23.97;56.06;99889.22;4105108;28;20239;-69
2022/05/20 03:18:42;;;;;;;10.18;6.60;;;;;;;23.49;56.91;99907.59;4107275;28;20258;-69
2022/05/20 03:20:44;;;;;;;11.07;6.60;;;;;;;23.57;56.95;99904.53;4103907;28;20246;-69
2022/05/20 03:22:46;;;;;;;10.38;6.40;;;;;;;23.97;56.19;99893.84;4105666;28;20242;-69
2022/05/20 03:24:48;;;;;;;7.68;6.00;;;;;;;22.81;58.13;99906.38;4106135;28;20289;-70
2022/05/20 03:26:49;;;;;;;9.27;6.43;;;;;;;23.89;56.13;99892.31;4106676;28;20663;-69
2022/05/20 03:28:51;;;;;;;8.02;7.00;;;;;;;24.18;55.37;99895.06;4094847;28;20274;-69
2022/05/20 03:30:53;;;;;;;7.97;6.32;;;;;;;23.78;56.15;99898.66;4106364;28;20306;-69
2022/05/20 03:32:54;;;;;;;9.35;6.32;;;;;;;23.75;56.84;99897.25;4104403;28;20764;-70
2022/05/20 03:34:59;;;;;;;8.93;5.82;;;;;;;23.28;58.06;99891.97;4095751;28;20723;-69
2022/05/20 03:37:01;;;;;;;9.18;6.25;;;;;;;23.65;56.89;99884.28;4102014;28;20227;-67
2022/05/20 03:39:03;;;;;;;7.68;6.20;;;;;;;23.86;56.53;99890.94;4103429;28;20246;-68
2022/05/20 03:41:06;;;;;;;10.98;6.72;;;;;;;23.72;56.91;99905.88;4103440;28;20289;-68
2022/05/20 03:43:09;;;;;;;9.48;7.45;;;;;;;23.89;56.50;99898.59;4103671;28;20235;-72
2022/05/20 03:45:12;;;;;;;10.25;7.10;;;;;;;23.88;56.54;99902.38;4106449;28;20234;-70
2022/05/20 03:47:13;;;;;;;9.50;7.05;;;;;;;23.89;56.44;99893.19;4111435;28;20293;-70
2022/05/20 03:49:16;;;;;;;10.32;6.97;;;;;;;23.28;57.98;99895.50;4109742;28;20238;-71
2022/05/20 03:51:19;;;;;;;8.10;7.25;;;;;;;24.12;56.07;99888.66;4111005;28;20392;-71
2022/05/20 03:53:21;;;;;;;12.05;8.25;;;;;;;23.94;56.34;99890.56;4110431;28;20296;-69
2022/05/20 03:55:23;;;;;;;9.93;7.60;;;;;;;23.69;57.22;99892.81;4109789;28;20285;-68
2022/05/20 03:57:25;;;;;;;10.63;8.63;;;;;;;23.29;58.10;99893.63;4111268;28;20230;-68
2022/05/20 03:59:27;;;;;;;13.40;8.95;;;;;;;23.92;56.49;99879.13;4111392;28;20304;-68
2022/05/20 04:03:49;;;;;;;10.10;7.88;;;;;;;22.91;59.37;99890.38;4107561;28;20242;-71
2022/05/20 04:05:53;;;;;;;11.45;7.60;;;;;;;23.62;57.78;99875.81;4110818;28;20762;-69
2022/05/20 04:07:55;;;;;;;9.85;7.75;;;;;;;23.34;58.20;99872.81;4110103;28;20243;-69
2022/05/20 04:09:57;;;;;;;10.93;8.25;;;;;;;23.13;58.58;99878.91;4097110;28;20239;-69
2022/05/20 04:12:03;;;;;;;9.02;7.38;;;;;;;23.15;58.68;99883.03;4093920;28;20295;-70
2022/05/20 04:14:06;;;;;;;11.18;7.82;;;;;;;24.02;56.51;99877.63;4098501;28;20330;-69
2022/05/20 04:16:09;;;;;;;10.48;7.50;;;;;;;23.07;59.06;99885.28;4105398;28;20621;-73
2022/05/20 04:18:11;;;;;;;11.63;7.90;;;;;;;22.51;60.13;99887.53;4099652;28;20311;-73
2022/05/20 04:20:13;;;;;;;19.10;12.27;;;;;;;23.56;57.56;99867.59;4109290;28;20231;-72
2022/05/20 04:22:23;;;;;;;18.23;12.32;;;;;;;23.75;57.18;99883.66;4104562;28;20230;-73
2022/05/20 04:24:25;;;;;;;16.70;13.45;;;;;;;24.30;55.43;99883.03;4106181;28;20265;-73
2022/05/20 04:26:26;;;;;;;17.48;14.40;;;;;;;24.50;54.92;99892.59;4096459;28;20278;-73
2022/05/20 04:28:28;;;;;;;18.88;14.55;;;;;;;24.35;55.11;99884.19;4111645;28;20281;-73
2022/05/20 04:30:30;;;;;;;15.13;13.52;;;;;;;23.56;57.23;99900.16;4096072;28;20283;-73
2022/05/20 04:32:31;;;;;;;13.20;11.90;;;;;;;23.28;57.65;99897.38;4110939;28;20262;-73
2022/05/20 04:34:33;;;;;;;15.57;10.88;;;;;;;24.20;55.69;99880.16;4113051;28;20245;-73
2022/05/20 04:36:35;;;;;;;12.40;11.13;;;;;;;24.67;54.56;99885.22;4095411;28;20260;-72
2022/05/20 04:38:37;;;;;;;15.02;10.48;;;;;;;24.64;54.78;99884.91;4097395;28;20243;-73
2022/05/20 04:40:39;;;;;;;11.60;10.45;;;;;;;24.40;55.16;99890.53;4109022;28;20349;-73
2022/05/20 04:47:24;;;;;;;12.65;8.82;;;;;;;24.66;55.06;99877.31;4113153;28;20234;-74
2022/05/20 04:49:28;;;;;;;11.35;7.78;;;;;;;24.24;55.72;99881.28;4106581;28;20238;-73
2022/05/20 04:51:29;;;;;;;11.90;8.30;;;;;;;24.29;56.09;99883.28;4108119;28;20276;-74
2022/05/20 04:55:52;;;;;;;12.27;8.60;;;;;;;23.74;57.54;99890.19;4110263;28;20238;-73
2022/05/20 04:57:54;;;;;;;11.23;7.95;;;;;;;23.95;57.02;99885.94;4098457;28;20847;-72
2022/05/20 05:00:09;;;;;;;8.90;7.95;;;;;;;24.02;56.92;99881.16;4095140;28;20259;-72
2022/05/20 05:02:11;;;;;;;10.90;8.30;;;;;;;24.10;56.78;99879.94;4105172;28;20241;-72
2022/05/20 05:04:13;;;;;;;10.75;8.68;;;;;;;24.34;56.36;99879.81;4095910;28;20235;-72
2022/05/20 05:06:14;;;;;;;12.88;9.20;;;;;;;24.75;55.26;99888.56;4105558;28;20234;-72
2022/05/20 05:08:17;;;;;;;12.30;8.85;;;;;;;24.56;55.47;99891.56;4106943;28;20694;-73
2022/05/20 05:10:22;;;;;;;10.75;9.45;;;;;;;24.72;55.50;99894.53;4110618;28;20674;-73
2022/05/20 05:12:23;;;;;;;12.13;9.80;;;;;;;24.25;56.08;99898.44;4103195;28;20235;-73
2022/05/20 05:14:25;;;;;;;10.23;9.20;;;;;;;24.41;56.10;99899.50;4109602;28;20657;-72
2022/05/20 05:16:27;;;;;;;10.63;9.52;;;;;;;24.11;56.81;99901.44;4111386;28;20226;-72
2022/05/20 05:18:29;;;;;;;13.00;10.60;;;;;;;24.00;57.21;99906.94;4109722;28;20617;-72
2022/05/20 05:20:32;;;;;;;11.68;10.23;;;;;;;24.59;55.77;99915.53;4108381;28;20711;-72
2022/05/20 05:22:34;;;;;;;13.38;10.07;;;;;;;24.08;56.99;99922.84;4103744;28;20240;-76
2022/05/20 05:24:41;;;;;;;12.70;10.70;;;;;;;23.68;58.02;99921.00;4106207;28;20237;-72
2022/05/20 05:26:43;;;;;;;12.43;11.10;;;;;;;22.96;59.69;99923.03;4107814;28;20321;-71
2022/05/20 05:28:45;;;;;;;11.10;10.00;;;;;;;24.10;57.50;99921.50;4112039;28;20365;-72
2022/05/20 05:30:49;;;;;;;11.90;10.27;;;;;;;24.09;57.22;99924.47;4107752;28;20243;-75
2022/05/20 05:32:51;;;;;;;12.32;9.95;;;;;;;24.11;57.11;99930.50;4097872;28;20738;-73
2022/05/20 05:34:53;;;;;;;12.30;10.57;;;;;;;23.72;57.94;99933.00;4106388;28;20247;-72
2022/05/20 05:36:54;;;;;;;12.85;11.50;;;;;;;23.27;59.34;99934.53;4103961;28;20226;-74
2022/05/20 05:38:56;;;;;;;12.50;10.93;;;;;;;24.05;57.41;99920.59;4103506;28;20234;-74
2022/05/20 05:40:58;;;;;;;12.48;10.82;;;;;;;23.49;59.12;99929.28;4107393;28;20235;-73
2022/05/20 05:43:01;;;;;;;14.82;12.15;;;;;;;23.33;59.85;99914.59;4101926;28;20727;-74
2022/05/20 05:45:05;;;;;;;13.55;11.63;;;;;;;24.19;57.17;99910.28;4103374;28;20250;-73
2022/05/20 05:47:06;;;;;;;12.85;10.73;;;;;;;23.86;58.04;99926.25;4109313;28;20243;-73
2022/05/20 05:49:08;;;;;;;13.15;10.50;;;;;;;24.27;57.18;99918.03;4104588;28;20235;-74
2022/05/20 05:51:10;;;;;;;10.52;9.40;;;;;;;23.97;58.04;99926.44;4101621;28;20231;-73
2022/05/20 05:53:18;;;;;;;9.68;8.60;;;;;;;24.11;58.30;99917.72;4103942;28;20230;-74
2022/05/20 05:55:20;;;;;;;10.15;9.15;;;;;;;24.30;57.45;99912.91;4109325;28;20234;-73
2022/05/20 05:57:22;;;;;;;12.20;8.77;;;;;;;24.58;57.15;99924.78;4108207;28;20234;-73
2022/05/20 05:59:24;;;;;;;13.40;9.52;;;;;;;22.85;61.04;99942.81;4102272;28;20261;-74
2022/05/20 06:01:25;;;;;;;15.18;9.45;;;;;;;22.88;60.72;99933.38;4104865;28;20681;-74
2022/05/20 06:03:27;;;;;;;12.85;8.73;;;;;;;22.54;62.08;99920.41;4101369;28;20231;-74
2022/05/20 06:05:30;;;;;;;13.07;8.63;;;;;;;22.60;62.25;99918.66;4101642;28;20771;-74
2022/05/20 06:07:32;;;;;;;9.73;8.30;;;;;;;22.97;60.78;99927.38;4104436;28;20726;-74
2022/05/20 06:09:34;;;;;;;11.45;9.13;;;;;;;24.23;58.06;99923.13;4108952;28;20269;-74
2022/05/20 06:11:36;;;;;;;11.18;8.43;;;;;;;24.00;58.36;99934.91;4106145;28;20672;-74
2022/05/20 06:13:38;;;;;;;10.75;7.90;;;;;;;24.27;57.25;99932.41;4111526;28;20278;-74
2022/05/20 06:15:40;;;;;;;9.30;6.78;;;;;;;24.74;56.34;99920.38;4103869;28;20347;-74
2022/05/20 06:17:42;;;;;;;11.05;7.60;;;;;;;23.98;57.65;99936.22;4098135;28;20704;-75
2022/05/20 06:19:45;;;;;;;9.65;8.63;;;;;;;23.85;58.79;99943.59;4102574;28;20238;-74
2022/05/20 06:21:46;;;;;;;11.20;8.90;;;;;;;23.67;59.22;99935.63;4107460;28;20236;-74
2022/05/20 06:23:48;;;;;;;13.30;8.77;;;;;;;24.17;58.07;99926.00;4105141;28;20674;-74
2022/05/20 06:25:51;;;;;;;15.50;9.73;;;;;;;23.82;58.89;99935.09;4100559;28;20235;-74
2022/05/20 06:28:15;;;;;;;10.25;8.63;;;;;;;24.49;57.38;99929.78;4107453;28;20625;-74
2022/05/20 06:30:19;;;;;;;15.98;8.75;;;;;;;24.40;57.78;99939.44;4104230;28;20223;-74
2022/05/20 06:32:21;;;;;;;13.98;9.02;;;;;;;24.91;56.67;99936.72;4095108;28;20235;-74
2022/05/20 06:34:22;;;;;;;10.00;8.60;;;;;;;24.17;58.18;99947.72;4098010;28;20230;-74
2022/05/20 06:41:07;;;;;;;12.73;8.77;;;;;;;25.20;55.55;99945.53;4104539;28;20292;-74
2022/05/20 06:43:09;;;;;;;10.20;9.02;;;;;;;24.60;57.39;99943.56;4106767;28;20285;-74
2022/05/20 06:45:12;;;;;;;10.30;8.70;;;;;;;24.75;57.03;99938.34;4109244;28;20230;-74
2022/05/20 06:47:14;;;;;;;12.07;8.32;;;;;;;25.67;55.34;99933.34;4108888;28;20238;-74
2022/05/20 06:49:16;;;;;;;12.00;8.32;;;;;;;25.69;55.38;99933.91;4100267;28;20322;-74
2022/05/20 06:51:21;;;;;;;10.88;8.07;;;;;;;25.69;55.33;99935.81;4109019;28;20715;-74
2022/05/20 06:53:23;;;;;;;9.95;7.93;;;;;;;24.78;57.02;99937.88;4102435;28;20235;-74
2022/05/20 06:55:25;;;;;;;11.65;8.45;;;;;;;25.15;56.79;99936.50;4081058;28;20239;-74
2022/05/20 06:57:26;;;;;;;9.88;8.43;;;;;;;25.51;55.60;99926.06;4088147;28;20238;-74
2022/05/20 06:59:28;;;;;;;9.73;7.78;;;;;;;25.82;54.84;99929.97;4083278;28;20243;-74
2022/05/20 07:01:30;;;;;;;11.73;7.78;;;;;;;25.42;56.43;99937.44;4085950;28;20243;-75
2022/05/20 07:03:32;;;;;;;9.77;7.10;;;;;;;25.12;56.59;99937.00;4090693;28;20242;-74
2022/05/20 07:05:34;;;;;;;9.25;7.20;;;;;;;25.55;56.16;99924.50;4092348;28;20235;-74
2022/05/20 07:07:36;;;;;;;11.48;8.18;;;;;;;25.48;55.58;99932.06;4087667;28;20235;-74
2022/05/20 07:09:38;;;;;;;8.98;6.43;;;;;;;25.27;55.96;99928.22;4091217;28;20227;-74
2022/05/20 07:11:40;;;;;;;10.05;7.95;;;;;;;25.03;56.72;99926.53;4090647;28;20251;-74
2022/05/20 07:13:42;;;;;;;11.70;7.82;;;;;;;25.41;55.88;99924.06;4091888;28;20294;-74
2022/05/20 07:15:50;;;;;;;8.52;7.32;;;;;;;26.04;53.93;99924.50;4096396;28;20329;-79
2022/05/20 07:17:52;;;;;;;10.13;7.32;;;;;;;26.01;54.28;99926.91;4094012;28;20314;-75
2022/05/20 07:19:54;;;;;;;9.77;7.72;;;;;;;26.67;52.60;99929.38;4104960;28;20239;-75
2022/05/20 07:21:55;;;;;;;10.07;7.40;;;;;;;26.06;54.17;99926.97;4112643;28;20302;-75
2022/05/20 07:23:57;;;;;;;10.73;7.75;;;;;;;25.84;54.70;99914.19;4111418;28;20234;-75
2022/05/20 07:26:01;;;;;;;9.75;7.50;;;;;;;25.81;55.58;99911.97;4101846;28;20948;-75
2022/05/20 07:28:05;;;;;;;9.52;7.38;;;;;;;26.45;53.67;99905.75;4107236;28;20321;-76
2022/05/20 07:30:08;;;;;;;11.45;7.97;;;;;;;26.50;53.67;99902.25;4107903;28;20230;-75
2022/05/20 07:32:10;;;;;;;9.98;7.35;;;;;;;26.95;52.81;99911.03;4095471;28;20713;-75
2022/05/20 07:34:12;;;;;;;9.10;7.15;;;;;;;26.58;53.26;99915.44;4109301;28;20297;-75
2022/05/20 07:36:14;;;;;;;11.63;7.90;;;;;;;25.71;54.72;99907.25;4110870;28;21323;-75
2022/05/20 07:38:16;;;;;;;10.75;8.05;;;;;;;26.02;54.83;99902.13;4092167;28;20996;-74
2022/05/20 07:40:19;;;;;;;12.65;7.70;;;;;;;26.46;54.16;99901.94;4094495;28;20258;-75
2022/05/20 07:42:22;;;;;;;9.20;6.70;;;;;;;25.95;55.69;99901.53;4090833;28;20861;-75
2022/05/20 07:44:24;;;;;;;12.32;7.07;;;;;;;26.02;54.85;99884.97;4093775;28;20290;-75
2022/05/20 07:46:26;;;;;;;17.30;8.18;;;;;;;26.07;54.71;99885.03;4095428;28;20235;-75
2022/05/20 07:48:28;;;;;;;9.02;7.82;;;;;;;25.18;56.80;99876.94;4106708;28;20298;-74
2022/05/20 07:50:33;;;;;;;10.88;7.57;;;;;;;26.21;54.38;99877.22;4092761;28;20285;-75
2022/05/20 07:55:02;;;;;;;9.75;6.47;;;;;;;26.88;53.04;99889.44;4112595;28;20234;-74
2022/05/20 07:57:12;;;;;;;10.13;6.80;;;;;;;26.97;53.42;99887.03;4116191;28;20302;-74
2022/05/20 07:59:19;;;;;;;13.15;6.80;;;;;;;26.75;53.84;99881.72;4109685;28;20301;-75
2022/05/20 08:01:24;;;;;;;9.50;7.47;;;;;;;27.03;53.66;99884.06;4107822;28;20286;-74
2022/05/20 08:05:48;;;;;;;10.63;6.88;;;;;;;25.74;54.99;99884.94;4099732;28;20243;-74
2022/05/20 08:07:50;;;;;;;9.40;6.70;;;;;;;25.58;54.65;99872.28;4098058;28;20235;-75
2022/05/20 08:09:52;;;;;;;10.68;6.97;;;;;;;26.47;53.37;99870.91;4106837;28;20238;-74
2022/05/20 08:11:56;;;;;;;12.13;6.40;;;;;;;26.60;53.67;99868.81;4110321;28;20234;-74
2022/05/20 08:13:57;;;;;;;11.50;6.95;;;;;;;26.27;53.38;99877.00;4112261;28;20292;-74
2022/05/20 08:15:59;;;;;;;8.63;6.22;;;;;;;26.36;53.11;99874.63;4109085;28;20244;-74
2022/05/20 08:18:01;;;;;;;9.38;5.95;;;;;;;27.01;52.77;99880.78;4100384;28;20235;-74
2022/05/20 08:20:07;;;;;;;11.23;6.15;;;;;;;27.34;51.42;99878.75;4105382;28;20266;-75
2022/05/20 08:22:09;;;;;;;12.15;6.15;;;;;;;27.96;49.80;99879.72;4094805;28;20311;-75
2022/05/20 08:24:10;;;;;;;13.32;6.72;;;;;;;28.27;48.98;99876.19;4090462;28;20810;-74
2022/05/20 08:26:16;;;;;;;19.05;6.40;;;;;;;28.39;48.49;99879.44;4091469;28;20294;-75
2022/05/20 08:28:19;;;;;;;14.85;6.20;;;;;;;27.33;51.26;99885.31;4109713;28;20366;-75
2022/05/20 08:30:24;;;;;;;14.32;6.72;;;;;;;27.52;51.14;99873.88;4107171;28;20271;-75
2022/05/20 08:32:26;;;;;;;9.50;5.80;;;;;;;27.44;50.97;99862.38;4109192;28;21080;-75
2022/05/20 08:34:28;;;;;;;13.00;6.20;;;;;;;27.19;50.62;99862.31;4111848;28;20293;-74
2022/05/20 08:36:38;;;;;;;7.93;6.00;;;;;;;27.54;50.52;99850.66;4105801;28;20253;-74
2022/05/20 08:38:40;;;;;;;11.35;6.47;;;;;;;27.65;50.10;99857.00;4108086;28;20819;-75
2022/05/20 08:40:45;;;;;;;8.15;5.53;;;;;;;27.97;49.20;99858.66;4108253;28;20234;-75
2022/05/20 08:42:49;;;;;;;7.22;5.53;;;;;;;28.14;48.98;99851.03;4108804;28;20236;-75
2022/05/20 08:44:51;;;;;;;12.20;6.35;;;;;;;27.97;49.81;99850.47;4106297;28;20609;-75
2022/05/20 08:47:36;;;;;;;6.43;5.78;;;;;;;28.05;49.46;99840.91;4103998;28;20673;-75
2022/05/20 08:49:38;;;;;;;8.80;6.07;;;;;;;28.63;48.27;99840.56;4107587;28;20290;-75
2022/05/20 08:51:42;;;;;;;8.35;6.03;;;;;;;28.71;47.47;99856.44;4106083;28;20226;-75
2022/05/20 08:53:46;;;;;;;7.60;5.70;;;;;;;28.77;48.26;99844.41;4108732;28;20652;-75
2022/05/20 08:55:49;;;;;;;8.32;5.88;;;;;;;28.55;48.53;99836.50;4110600;28;20480;-76
2022/05/20 08:57:56;;;;;;;9.13;5.10;;;;;;;27.74;50.18;99827.25;4111972;28;20235;-74
2022/05/20 08:59:58;;;;;;;8.05;5.25;;;;;;;28.04;49.49;99820.13;4100216;28;20247;-75
2022/05/20 09:02:00;;;;;;;8.77;5.57;;;;;;;28.59;48.51;99810.22;4112030;28;20237;-75
2022/05/20 09:04:05;;;;;;;10.70;5.47;;;;;;;28.58;47.85;99813.22;4105837;28;20226;-75
2022/05/20 09:06:10;;;;;;;7.00;5.13;;;;;;;29.08;47.75;99819.63;4109511;28;20666;-75
2022/05/20 09:08:28;;;;;;;9.25;5.10;;;;;;;28.57;47.98;99809.69;4111742;28;20229;-75
2022/05/20 09:10:33;;;;;;;8.23;4.93;;;;;;;29.08;46.03;99817.72;4110937;28;20310;-75
2022/05/20 09:12:38;;;;;;;7.50;5.07;;;;;;;29.32;47.51;99805.31;4109408;28;20620;-74
2022/05/20 09:17:15;;;;;;;8.45;5.00;;;;;;;29.50;46.65;99806.56;4104311;28;20234;-74
2022/05/20 09:19:27;;;;;;;9.45;6.05;;;;;;;29.95;45.37;99797.19;4109436;28;20420;-74
2022/05/20 09:21:36;;;;;;;9.15;5.80;;;;;;;29.98;45.11;99787.59;4104003;28;20289;-74
2022/05/20 09:23:51;;;;;;;10.30;5.35;;;;;;;29.93;45.04;99784.84;4096290;28;20240;-74
2022/05/20 09:25:59;;;;;;;10.38;5.68;;;;;;;30.08;43.97;99789.38;4097830;28;20293;-74
2022/05/20 09:28:22;;;;;;;7.63;4.95;;;;;;;29.39;45.47;99770.19;4109259;28;20238;-74
2022/05/20 09:30:24;;;;;;;7.55;5.25;;;;;;;28.78;46.56;99755.75;4105649;28;20218;-74
2022/05/20 09:33:11;;;;;;;7.82;4.68;;;;;;;28.71;47.21;99753.31;4104239;28;20274;-73
2022/05/20 09:35:13;;;;;;;7.65;5.00;;;;;;;29.75;45.12;99746.09;4106845;28;20232;-74
2022/05/20 09:37:20;;;;;;;10.77;4.35;;;;;;;29.42;44.91;99747.72;4093477;28;20230;-74
2022/05/20 09:39:31;;;;;;;10.63;4.90;;;;;;;29.89;44.42;99749.00;4109777;28;20234;-74
2022/05/20 09:41:43;;;;;;;6.28;4.57;;;;;;;29.93;45.09;99757.44;4101778;28;20231;-76
2022/05/20 09:43:59;;;;;;;8.63;4.63;;;;;;;30.11;44.93;99762.19;4097702;28;20239;-73
2022/05/20 09:46:01;;;;;;;10.38;5.05;;;;;;;30.11;44.93;99761.38;4094152;28;20785;-73
2022/05/20 09:48:04;;;;;;;6.43;4.43;;;;;;;29.45;45.95;99752.63;4093108;28;20235;-75
2022/05/20 09:50:41;;;;;;;10.82;4.97;;;;;;;29.60;45.63;99743.47;4098570;28;20915;-74
2022/05/20 09:53:04;;;;;;;7.97;4.75;;;;;;;30.15;43.35;99746.00;4106579;28;20250;-74
2022/05/20 09:55:25;;;;;;;10.75;4.80;;;;;;;30.11;43.52;99740.25;4105607;28;20243;-75
2022/05/20 09:57:38;;;;;;;6.75;4.05;;;;;;;29.10;44.17;99740.78;4094918;28;20235;-74
2022/05/20 09:59:49;;;;;;;6.05;4.28;;;;;;;29.46;44.47;99724.94;4111749;28;20235;-74
2022/05/20 10:02:07;;;;;;;6.78;4.07;;;;;;;29.40;44.09;99722.53;4103202;28;20296;-75
2022/05/20 10:04:13;;;;;;;7.53;4.60;;;;;;;29.99;43.40;99724.22;4093222;28;20617;-74
2022/05/20 10:06:32;;;;;;;8.45;4.60;;;;;;;29.29;43.90;99719.06;4105524;28;20607;-74
2022/05/20 10:08:46;;;;;;;6.45;3.95;;;;;;;29.93;43.27;99711.69;4098513;28;20246;-74